createdAt,value
2023-04-22T00:00:27.343Z,0.00
2023-04-22T00:01:27.716Z,0.00
2023-04-22T00:02:28.107Z,0.00
2023-04-22T00:03:28.623Z,0.00
2023-04-22T00:04:28.850Z,0.00
2023-04-22T00:05:29.193Z,0.00
2023-04-22T00:06:29.481Z,0.00
2023-04-22T00:07:29.801Z,0.00
2023-04-22T00:08:30.158Z,0.00
2023-04-22T00:09:30.517Z,0.00
2023-04-22T00:10:30.874Z,0.00
2023-04-22T00:11:31.260Z,0.00
2023-04-22T00:12:31.598Z,0.00
2023-04-22T00:13:31.953Z,0.00
2023-04-22T00:14:32.313Z,0.00
2023-04-22T00:15:32.716Z,0.00
2023-04-22T00:16:33.069Z,0.00
2023-04-22T00:17:33.443Z,0.00
2023-04-22T00:18:33.734Z,0.00
2023-04-22T00:19:34.083Z,0.00
2023-04-22T00:20:34.476Z,0.00
2023-04-22T00:21:34.835Z,0.00
2023-04-22T00:22:35.159Z,0.00
2023-04-22T00:23:35.537Z,0.00
2023-04-22T00:24:35.879Z,0.00
2023-04-22T00:25:36.333Z,0.00
2023-04-22T00:26:36.590Z,0.00
2023-04-22T00:27:36.952Z,0.00
2023-04-22T00:28:37.286Z,0.00
2023-04-22T00:29:37.804Z,0.00
2023-04-22T00:30:38.049Z,0.00
2023-04-22T00:31:38.468Z,0.00
2023-04-22T00:32:38.765Z,0.00
2023-04-22T00:33:39.095Z,0.00
2023-04-22T00:34:39.443Z,0.00
2023-04-22T00:35:39.815Z,0.00
2023-04-22T00:36:40.219Z,0.00
2023-04-22T00:37:40.533Z,0.00
2023-04-22T00:38:40.883Z,0.00
2023-04-22T00:39:41.576Z,0.00
2023-04-22T00:40:41.615Z,0.00
2023-04-22T00:41:42.264Z,0.00
2023-04-22T00:42:42.320Z,0.00
2023-04-22T00:43:42.688Z,0.00
2023-04-22T00:44:43.050Z,0.00
2023-04-22T00:45:43.406Z,0.00
2023-04-22T00:46:43.799Z,0.00
2023-04-22T00:47:44.216Z,0.00
2023-04-22T00:48:44.490Z,0.00
2023-04-22T00:49:44.843Z,0.00
2023-04-22T00:50:45.214Z,0.00
2023-04-22T00:51:45.579Z,0.00
2023-04-22T00:52:45.914Z,0.00
2023-04-22T00:53:46.276Z,0.00
2023-04-22T00:54:46.641Z,0.00
2023-04-22T00:55:47.008Z,0.00
2023-04-22T00:56:47.407Z,0.00
2023-04-22T00:57:47.716Z,0.00
2023-04-22T00:58:48.081Z,0.00
2023-04-22T00:59:48.447Z,0.00
2023-04-22T01:00:48.895Z,0.00
2023-04-22T01:01:49.212Z,0.00
2023-04-22T01:02:49.671Z,0.00
2023-04-22T01:03:50.227Z,0.00
2023-04-22T01:04:50.260Z,0.00
2023-04-22T01:05:50.628Z,0.00
2023-04-22T01:06:51.005Z,0.00
2023-04-22T01:07:51.372Z,0.00
2023-04-22T01:08:51.735Z,0.00
2023-04-22T01:09:52.103Z,0.00
2023-04-22T01:10:52.471Z,0.00
2023-04-22T01:11:52.850Z,0.00
2023-04-22T01:12:53.185Z,0.00
2023-04-22T01:13:53.545Z,0.00
2023-04-22T01:14:53.910Z,0.00
2023-04-22T01:15:54.276Z,0.00
2023-04-22T01:16:54.687Z,0.00
2023-04-22T01:17:55.095Z,0.00
2023-04-22T01:18:55.366Z,0.00
2023-04-22T01:19:55.775Z,0.00
2023-04-22T01:20:56.088Z,0.00
2023-04-22T01:21:56.450Z,0.00
2023-04-22T01:22:56.774Z,0.00
2023-04-22T01:23:57.167Z,0.00
2023-04-22T01:24:57.506Z,0.00
2023-04-22T01:25:57.861Z,0.00
2023-04-22T01:26:58.245Z,0.00
2023-04-22T01:27:58.599Z,0.00
2023-04-22T01:28:58.947Z,0.00
2023-04-22T01:29:59.311Z,0.00
2023-04-22T01:30:59.664Z,0.00
2023-04-22T01:32:00.106Z,0.00
2023-04-22T01:33:00.446Z,0.00
2023-04-22T01:34:00.763Z,0.00
2023-04-22T01:35:01.109Z,0.00
2023-04-22T01:36:01.455Z,0.00
2023-04-22T01:37:01.898Z,0.00
2023-04-22T01:38:02.172Z,0.00
2023-04-22T01:39:02.510Z,0.00
2023-04-22T01:40:02.895Z,0.00
2023-04-22T01:41:03.234Z,0.00
2023-04-22T01:42:03.650Z,0.00
2023-04-22T01:43:03.944Z,0.00
2023-04-22T01:44:04.281Z,0.00
2023-04-22T01:45:04.627Z,0.00
2023-04-22T01:46:05.087Z,0.00
2023-04-22T01:47:05.362Z,0.00
2023-04-22T01:48:05.759Z,0.00
2023-04-22T01:49:06.059Z,0.00
2023-04-22T01:50:06.404Z,0.00
2023-04-22T01:51:06.802Z,0.00
2023-04-22T01:52:07.209Z,0.00
2023-04-22T01:53:07.479Z,0.00
2023-04-22T01:54:07.835Z,0.00
2023-04-22T01:55:08.204Z,0.00
2023-04-22T01:56:08.568Z,0.00
2023-04-22T01:57:08.951Z,0.00
2023-04-22T01:58:09.268Z,0.00
2023-04-22T01:59:09.623Z,0.00
2023-04-22T02:00:09.985Z,0.00
2023-04-22T02:01:10.439Z,0.00
2023-04-22T02:02:10.839Z,0.00
2023-04-22T02:03:11.166Z,0.00
2023-04-22T02:04:11.398Z,0.00
2023-04-22T02:05:11.783Z,0.00
2023-04-22T02:06:12.096Z,0.00
2023-04-22T02:07:12.475Z,0.00
2023-04-22T02:08:12.788Z,0.00
2023-04-22T02:09:13.129Z,0.00
2023-04-22T02:10:13.472Z,0.00
2023-04-22T02:11:13.827Z,0.00
2023-04-22T02:12:14.187Z,0.00
2023-04-22T02:13:14.526Z,0.00
2023-04-22T02:14:14.859Z,0.00
2023-04-22T02:15:15.188Z,0.00
2023-04-22T02:16:15.586Z,0.00
2023-04-22T02:17:15.902Z,0.00
2023-04-22T02:18:16.235Z,0.00
2023-04-22T02:19:16.585Z,0.00
2023-04-22T02:20:17.022Z,0.00
2023-04-22T02:21:17.295Z,0.00
2023-04-22T02:22:17.645Z,0.00
2023-04-22T02:23:18.007Z,0.00
2023-04-22T02:24:18.356Z,0.00
2023-04-22T02:25:18.863Z,0.00
2023-04-22T02:26:19.051Z,0.00
2023-04-22T02:27:19.435Z,0.00
2023-04-22T02:28:19.774Z,0.00
2023-04-22T02:29:20.121Z,0.00
2023-04-22T02:30:20.477Z,0.00
2023-04-22T02:31:20.885Z,0.00
2023-04-22T02:32:21.221Z,0.00
2023-04-22T02:33:21.500Z,0.00
2023-04-22T02:34:21.844Z,0.00
2023-04-22T02:35:22.180Z,0.00
2023-04-22T02:36:22.525Z,0.00
2023-04-22T02:37:22.920Z,0.00
2023-04-22T02:38:23.206Z,0.00
2023-04-22T02:39:23.538Z,0.00
2023-04-22T02:40:23.876Z,0.00
2023-04-22T02:41:24.242Z,0.00
2023-04-22T02:42:24.594Z,0.00
2023-04-22T02:43:24.918Z,0.00
2023-04-22T02:44:25.260Z,0.00
2023-04-22T02:45:25.611Z,0.00
2023-04-22T02:46:26.042Z,0.00
2023-04-22T02:47:26.348Z,0.00
2023-04-22T02:48:26.669Z,0.00
2023-04-22T02:49:27.038Z,0.00
2023-04-22T02:50:27.371Z,0.00
2023-04-22T02:51:27.725Z,0.00
2023-04-22T02:52:28.068Z,0.00
2023-04-22T02:53:28.414Z,0.00
2023-04-22T02:54:28.753Z,0.00
2023-04-22T02:55:29.105Z,0.00
2023-04-22T02:56:29.448Z,0.00
2023-04-22T02:57:29.783Z,0.00
2023-04-22T02:58:30.136Z,0.00
2023-04-22T02:59:30.478Z,0.00
2023-04-22T03:00:30.890Z,0.00
2023-04-22T03:01:31.361Z,0.00
2023-04-22T03:02:31.694Z,0.00
2023-04-22T03:03:32.143Z,0.00
2023-04-22T03:04:32.269Z,0.00
2023-04-22T03:05:32.595Z,0.00
2023-04-22T03:06:32.975Z,0.00
2023-04-22T03:07:33.323Z,0.00
2023-04-22T03:08:33.657Z,0.00
2023-04-22T03:09:34.019Z,0.00
2023-04-22T03:10:34.399Z,0.00
2023-04-22T03:11:34.722Z,0.00
2023-04-22T03:12:35.081Z,0.00
2023-04-22T03:13:35.459Z,0.00
2023-04-22T03:14:35.780Z,0.00
2023-04-22T03:15:36.119Z,0.00
2023-04-22T03:16:36.519Z,0.00
2023-04-22T03:17:36.996Z,0.00
2023-04-22T03:18:37.160Z,0.00
2023-04-22T03:19:37.594Z,0.00
2023-04-22T03:20:37.863Z,0.00
2023-04-22T03:21:38.212Z,0.00
2023-04-22T03:22:38.653Z,0.00
2023-04-22T03:23:38.900Z,0.00
2023-04-22T03:24:39.236Z,0.00
2023-04-22T03:25:39.601Z,0.00
2023-04-22T03:26:39.974Z,0.00
2023-04-22T03:27:40.383Z,0.00
2023-04-22T03:28:40.570Z,1.00
2023-04-22T03:29:41.175Z,1.00
2023-04-22T03:30:41.133Z,1.00
2023-04-22T03:31:41.456Z,2.00
2023-04-22T03:32:41.862Z,0.00
2023-04-22T03:33:42.057Z,2.00
2023-04-22T03:34:42.357Z,3.00
2023-04-22T03:35:42.687Z,3.00
2023-04-22T03:36:42.928Z,2.00
2023-04-22T03:37:43.242Z,4.00
2023-04-22T03:38:43.522Z,5.00
2023-04-22T03:39:43.823Z,7.00
2023-04-22T03:40:44.091Z,9.00
2023-04-22T03:41:44.372Z,2.00
2023-04-22T03:42:44.677Z,9.00
2023-04-22T03:43:44.957Z,8.00
2023-04-22T03:44:45.255Z,13.00
2023-04-22T03:45:45.580Z,15.00
2023-04-22T03:46:45.738Z,12.00
2023-04-22T03:47:46.044Z,21.00
2023-04-22T03:48:46.292Z,18.00
2023-04-22T03:49:46.477Z,23.00
2023-04-22T03:50:46.755Z,33.00
2023-04-22T03:51:47.080Z,30.00
2023-04-22T03:52:47.365Z,32.00
2023-04-22T03:53:47.648Z,38.00
2023-04-22T03:54:47.939Z,44.00
2023-04-22T03:55:48.094Z,49.00
2023-04-22T03:56:48.407Z,55.00
2023-04-22T03:57:48.690Z,61.00
2023-04-22T03:58:48.844Z,76.00
2023-04-22T03:59:49.005Z,83.00
2023-04-22T04:00:49.312Z,94.00
2023-04-22T04:01:49.457Z,104.00
2023-04-22T04:02:49.974Z,116.00
2023-04-22T04:03:50.055Z,126.00
2023-04-22T04:04:50.450Z,142.00
2023-04-22T04:05:50.497Z,152.00
2023-04-22T04:06:50.555Z,169.00
2023-04-22T04:07:50.742Z,185.00
2023-04-22T04:08:50.910Z,202.00
2023-04-22T04:09:51.078Z,219.00
2023-04-22T04:10:51.255Z,238.00
2023-04-22T04:11:51.462Z,258.00
2023-04-22T04:12:51.607Z,274.00
2023-04-22T04:13:51.889Z,300.00
2023-04-22T04:14:52.196Z,319.00
2023-04-22T04:15:52.388Z,343.00
2023-04-22T04:16:52.539Z,369.00
2023-04-22T04:17:52.829Z,391.00
2023-04-22T04:18:52.992Z,413.00
2023-04-22T04:19:53.168Z,439.00
2023-04-22T04:20:53.359Z,469.00
2023-04-22T04:21:53.611Z,495.00
2023-04-22T04:22:53.800Z,522.00
2023-04-22T04:23:53.954Z,550.00
2023-04-22T04:24:54.251Z,580.00
2023-04-22T04:25:54.426Z,607.00
2023-04-22T04:26:54.615Z,635.00
2023-04-22T04:27:54.912Z,663.00
2023-04-22T04:28:55.053Z,688.00
2023-04-22T04:29:55.230Z,711.00
2023-04-22T04:30:55.444Z,738.00
2023-04-22T04:31:55.664Z,765.00
2023-04-22T04:32:55.893Z,787.00
2023-04-22T04:33:55.996Z,811.00
2023-04-22T04:34:56.176Z,836.00
2023-04-22T04:35:56.343Z,861.00
2023-04-22T04:36:56.516Z,887.00
2023-04-22T04:37:56.754Z,913.00
2023-04-22T04:38:56.982Z,942.00
2023-04-22T04:39:57.136Z,968.00
2023-04-22T04:40:57.332Z,989.00
2023-04-22T04:41:57.505Z,1011.00
2023-04-22T04:42:57.819Z,1034.00
2023-04-22T04:43:57.991Z,1055.00
2023-04-22T04:44:58.321Z,1075.00
2023-04-22T04:45:58.483Z,1099.00
2023-04-22T04:46:58.765Z,1121.00
2023-04-22T04:47:58.891Z,1143.00
2023-04-22T04:48:59.004Z,1167.00
2023-04-22T04:49:59.183Z,1191.00
2023-04-22T04:50:59.352Z,1214.00
2023-04-22T04:51:59.528Z,1240.00
2023-04-22T04:52:59.701Z,1262.00
2023-04-22T04:53:59.889Z,1287.00
2023-04-22T04:55:00.081Z,1312.00
2023-04-22T04:56:00.248Z,1337.00
2023-04-22T04:57:00.416Z,1359.00
2023-04-22T04:58:00.628Z,1384.00
2023-04-22T04:59:00.763Z,1413.00
2023-04-22T05:00:00.947Z,1443.00
2023-04-22T05:01:01.124Z,1481.00
2023-04-22T05:02:01.324Z,1524.00
2023-04-22T05:03:01.626Z,1571.00
2023-04-22T05:04:01.848Z,1629.00
2023-04-22T05:05:01.883Z,1702.00
2023-04-22T05:06:02.017Z,1764.00
2023-04-22T05:07:02.217Z,1809.00
2023-04-22T05:08:02.432Z,1890.00
2023-04-22T05:09:02.564Z,1996.00
2023-04-22T05:10:02.779Z,2130.00
2023-04-22T05:11:02.972Z,2250.00
2023-04-22T05:12:03.152Z,2321.00
2023-04-22T05:13:04.410Z,2315.00
2023-04-22T05:14:03.471Z,2269.00
2023-04-22T05:15:03.690Z,2210.00
2023-04-22T05:16:03.868Z,2083.00
2023-04-22T05:17:04.050Z,1944.00
2023-04-22T05:18:04.265Z,1854.00
2023-04-22T05:19:04.419Z,1827.00
2023-04-22T05:20:04.612Z,1848.00
2023-04-22T05:21:04.810Z,1875.00
2023-04-22T05:22:04.990Z,1897.00
2023-04-22T05:23:05.191Z,1938.00
2023-04-22T05:24:05.338Z,2021.00
2023-04-22T05:25:05.554Z,2082.00
2023-04-22T05:26:05.709Z,2107.00
2023-04-22T05:27:05.885Z,2097.00
2023-04-22T05:28:06.124Z,2071.00
2023-04-22T05:29:06.259Z,2028.00
2023-04-22T05:30:06.444Z,2009.00
2023-04-22T05:31:06.632Z,2020.00
2023-04-22T05:32:06.905Z,2031.00
2023-04-22T05:33:07.075Z,2039.00
2023-04-22T05:34:07.222Z,2050.00
2023-04-22T05:35:07.408Z,2065.00
2023-04-22T05:36:07.596Z,2083.00
2023-04-22T05:37:07.779Z,2098.00
2023-04-22T05:38:07.988Z,2116.00
2023-04-22T05:39:08.141Z,2136.00
2023-04-22T05:40:08.378Z,2151.00
2023-04-22T05:41:08.514Z,2164.00
2023-04-22T05:42:08.707Z,2172.00
2023-04-22T05:43:08.944Z,2186.00
2023-04-22T05:44:09.073Z,2200.00
2023-04-22T05:45:09.291Z,2207.00
2023-04-22T05:46:09.521Z,2210.00
2023-04-22T05:47:09.673Z,2224.00
2023-04-22T05:48:09.898Z,2258.00
2023-04-22T05:49:10.061Z,2283.00
2023-04-22T05:50:10.257Z,2308.00
2023-04-22T05:51:10.463Z,2325.00
2023-04-22T05:52:10.610Z,2344.00
2023-04-22T05:53:10.795Z,2357.00
2023-04-22T05:54:10.971Z,2369.00
2023-04-22T05:55:11.174Z,2375.00
2023-04-22T05:56:11.353Z,2376.00
2023-04-22T05:57:11.559Z,2387.00
2023-04-22T05:58:11.709Z,2400.00
2023-04-22T05:59:11.892Z,2412.00
2023-04-22T06:00:12.078Z,2424.00
2023-04-22T06:01:12.290Z,2432.00
2023-04-22T06:02:12.514Z,2436.00
2023-04-22T06:03:12.796Z,2441.00
2023-04-22T06:04:13.165Z,2439.00
2023-04-22T06:05:13.256Z,2448.00
2023-04-22T06:06:13.203Z,2461.00
2023-04-22T06:07:13.357Z,2474.00
2023-04-22T06:08:13.541Z,2487.00
2023-04-22T06:09:13.720Z,2494.00
2023-04-22T06:10:13.915Z,2506.00
2023-04-22T06:11:14.134Z,2519.00
2023-04-22T06:12:14.292Z,2535.00
2023-04-22T06:13:14.484Z,2560.00
2023-04-22T06:14:14.678Z,2588.00
2023-04-22T06:15:14.848Z,2612.00
2023-04-22T06:16:15.082Z,2657.00
2023-04-22T06:17:15.204Z,2691.00
2023-04-22T06:18:15.412Z,2716.00
2023-04-22T06:19:15.590Z,2736.00
2023-04-22T06:20:15.774Z,2746.00
2023-04-22T06:21:15.965Z,2742.00
2023-04-22T06:22:16.155Z,2716.00
2023-04-22T06:23:16.343Z,2559.00
2023-04-22T06:24:16.532Z,2525.00
2023-04-22T06:25:16.745Z,2566.00
2023-04-22T06:26:16.924Z,2718.00
2023-04-22T06:27:17.071Z,2763.00
2023-04-22T06:28:17.262Z,2783.00
2023-04-22T06:29:17.455Z,2790.00
2023-04-22T06:30:17.610Z,2800.00
2023-04-22T06:31:18.950Z,2808.00
2023-04-22T06:32:18.000Z,2813.00
2023-04-22T06:33:18.176Z,2826.00
2023-04-22T06:34:18.352Z,2835.00
2023-04-22T06:35:18.526Z,2840.00
2023-04-22T06:36:18.750Z,2847.00
2023-04-22T06:37:18.907Z,2848.00
2023-04-22T06:38:19.089Z,2845.00
2023-04-22T06:39:19.269Z,2855.00
2023-04-22T06:40:19.453Z,2859.00
2023-04-22T06:41:19.657Z,2860.00
2023-04-22T06:42:19.807Z,2871.00
2023-04-22T06:43:19.998Z,2888.00
2023-04-22T06:44:20.183Z,2888.00
2023-04-22T06:45:20.373Z,2896.00
2023-04-22T06:46:20.612Z,2904.00
2023-04-22T06:47:20.784Z,2901.00
2023-04-22T06:48:20.917Z,2881.00
2023-04-22T06:49:21.094Z,2877.00
2023-04-22T06:50:21.274Z,2876.00
2023-04-22T06:51:21.495Z,2867.00
2023-04-22T06:52:22.779Z,2854.00
2023-04-22T06:53:21.852Z,2852.00
2023-04-22T06:54:22.017Z,2844.00
2023-04-22T06:55:22.198Z,2825.00
2023-04-22T06:56:22.404Z,2822.00
2023-04-22T06:57:22.573Z,2826.00
2023-04-22T06:58:22.746Z,2834.00
2023-04-22T06:59:22.914Z,2838.00
2023-04-22T07:00:23.097Z,2838.00
2023-04-22T07:01:23.310Z,2844.00
2023-04-22T07:02:23.504Z,2851.00
2023-04-22T07:03:23.904Z,2861.00
2023-04-22T07:04:23.869Z,2880.00
2023-04-22T07:05:24.023Z,2894.00
2023-04-22T07:06:24.194Z,2915.00
2023-04-22T07:07:24.366Z,2931.00
2023-04-22T07:08:24.556Z,2942.00
2023-04-22T07:09:24.750Z,2964.00
2023-04-22T07:10:24.938Z,2985.00
2023-04-22T07:11:25.134Z,3005.00
2023-04-22T07:12:25.312Z,3010.00
2023-04-22T07:13:25.475Z,2974.00
2023-04-22T07:14:25.652Z,3010.00
2023-04-22T07:15:25.838Z,3009.00
2023-04-22T07:16:26.089Z,3013.00
2023-04-22T07:17:26.254Z,3008.00
2023-04-22T07:18:26.408Z,3003.00
2023-04-22T07:19:26.615Z,3033.00
2023-04-22T07:20:26.796Z,3056.00
2023-04-22T07:21:26.990Z,3066.00
2023-04-22T07:22:27.143Z,3086.00
2023-04-22T07:23:27.339Z,3113.00
2023-04-22T07:24:27.529Z,3144.00
2023-04-22T07:25:27.720Z,3181.00
2023-04-22T07:26:27.928Z,3216.00
2023-04-22T07:27:28.069Z,3240.00
2023-04-22T07:28:28.264Z,3276.00
2023-04-22T07:29:28.434Z,3318.00
2023-04-22T07:30:28.636Z,3315.00
2023-04-22T07:31:28.839Z,3221.00
2023-04-22T07:32:29.033Z,3328.00
2023-04-22T07:33:29.196Z,3321.00
2023-04-22T07:34:29.393Z,3379.00
2023-04-22T07:35:29.668Z,3156.00
2023-04-22T07:36:29.770Z,3282.00
2023-04-22T07:37:29.970Z,3356.00
2023-04-22T07:38:30.117Z,3571.00
2023-04-22T07:39:30.322Z,3708.00
2023-04-22T07:40:30.454Z,3761.00
2023-04-22T07:41:30.676Z,3795.00
2023-04-22T07:42:30.841Z,3804.00
2023-04-22T07:43:31.027Z,3786.00
2023-04-22T07:44:31.227Z,3763.00
2023-04-22T07:45:31.433Z,3882.00
2023-04-22T07:46:31.590Z,3906.00
2023-04-22T07:47:31.793Z,3407.00
2023-04-22T07:48:31.899Z,3896.00
2023-04-22T07:49:32.141Z,3918.00
2023-04-22T07:50:32.284Z,3929.00
2023-04-22T07:51:32.480Z,3979.00
2023-04-22T07:52:32.635Z,4008.00
2023-04-22T07:53:32.792Z,4038.00
2023-04-22T07:54:32.987Z,4077.00
2023-04-22T07:55:33.188Z,4124.00
2023-04-22T07:56:33.352Z,4160.00
2023-04-22T07:57:33.508Z,4202.00
2023-04-22T07:58:33.704Z,4254.00
2023-04-22T07:59:33.895Z,4292.00
2023-04-22T08:00:34.104Z,4329.00
2023-04-22T08:01:34.268Z,4359.00
2023-04-22T08:02:34.558Z,4397.00
2023-04-22T08:03:34.805Z,4391.00
2023-04-22T08:04:34.855Z,4384.00
2023-04-22T08:05:34.996Z,4387.00
2023-04-22T08:06:35.207Z,4387.00
2023-04-22T08:07:35.362Z,4368.00
2023-04-22T08:08:35.547Z,4332.00
2023-04-22T08:09:35.743Z,4297.00
2023-04-22T08:10:35.926Z,4265.00
2023-04-22T08:11:36.133Z,4248.00
2023-04-22T08:12:36.334Z,4237.00
2023-04-22T08:13:36.500Z,4161.00
2023-04-22T08:14:36.670Z,4148.00
2023-04-22T08:15:36.891Z,4207.00
2023-04-22T08:16:37.058Z,4265.00
2023-04-22T08:17:37.217Z,4300.00
2023-04-22T08:18:37.416Z,4350.00
2023-04-22T08:19:37.759Z,4400.00
2023-04-22T08:20:37.777Z,4441.00
2023-04-22T08:21:37.984Z,4476.00
2023-04-22T08:22:38.140Z,4528.00
2023-04-22T08:23:38.359Z,4588.00
2023-04-22T08:24:38.522Z,4597.00
2023-04-22T08:25:38.717Z,4573.00
2023-04-22T08:26:38.924Z,4561.00
2023-04-22T08:27:39.845Z,4552.00
2023-04-22T08:28:39.375Z,4550.00
2023-04-22T08:29:39.695Z,4548.00
2023-04-22T08:30:39.678Z,4542.00
2023-04-22T08:31:39.975Z,4539.00
2023-04-22T08:32:40.110Z,4544.00
2023-04-22T08:33:40.226Z,4526.00
2023-04-22T08:34:40.864Z,4515.00
2023-04-22T08:35:40.600Z,4539.00
2023-04-22T08:36:40.798Z,4589.00
2023-04-22T08:37:41.058Z,4626.00
2023-04-22T08:38:41.154Z,4617.00
2023-04-22T08:39:41.565Z,4506.00
2023-04-22T08:40:41.521Z,4346.00
2023-04-22T08:41:41.789Z,4589.00
2023-04-22T08:42:41.893Z,4545.00
2023-04-22T08:43:42.084Z,4456.00
2023-04-22T08:44:42.278Z,4334.00
2023-04-22T08:45:42.485Z,4373.00
2023-04-22T08:46:42.721Z,4333.00
2023-04-22T08:47:42.934Z,4399.00
2023-04-22T08:48:43.038Z,4412.00
2023-04-22T08:49:43.197Z,4442.00
2023-04-22T08:50:43.385Z,4452.00
2023-04-22T08:51:43.619Z,4448.00
2023-04-22T08:52:43.758Z,4446.00
2023-04-22T08:53:43.957Z,4454.00
2023-04-22T08:54:44.153Z,4437.00
2023-04-22T08:55:44.406Z,4409.00
2023-04-22T08:56:44.592Z,4414.00
2023-04-22T08:57:44.758Z,4418.00
2023-04-22T08:58:44.894Z,4429.00
2023-04-22T08:59:45.090Z,4440.00
2023-04-22T09:00:45.283Z,4430.00
2023-04-22T09:01:45.575Z,4443.00
2023-04-22T09:02:45.793Z,4477.00
2023-04-22T09:03:45.949Z,4637.00
2023-04-22T09:04:46.055Z,4784.00
2023-04-22T09:05:46.252Z,4811.00
2023-04-22T09:06:46.478Z,4837.00
2023-04-22T09:07:46.668Z,4873.00
2023-04-22T09:08:46.866Z,4920.00
2023-04-22T09:09:47.028Z,4978.00
2023-04-22T09:10:47.212Z,5035.00
2023-04-22T09:11:47.456Z,5108.00
2023-04-22T09:12:47.570Z,5172.00
2023-04-22T09:13:47.764Z,5205.00
2023-04-22T09:14:47.966Z,5248.00
2023-04-22T09:15:48.168Z,5288.00
2023-04-22T09:16:48.497Z,5323.00
2023-04-22T09:17:48.552Z,5346.00
2023-04-22T09:18:48.704Z,5397.00
2023-04-22T09:19:48.905Z,5432.00
2023-04-22T09:20:49.167Z,5493.00
2023-04-22T09:21:50.822Z,5572.00
2023-04-22T09:22:49.497Z,5679.00
2023-04-22T09:23:49.656Z,5873.00
2023-04-22T09:24:49.865Z,6149.00
2023-04-22T09:25:50.059Z,8103.00
2023-04-22T09:26:50.283Z,10274.00
2023-04-22T09:27:50.421Z,11480.00
2023-04-22T09:28:50.658Z,13057.00
2023-04-22T09:29:50.800Z,8155.00
2023-04-22T09:30:51.021Z,8156.00
2023-04-22T09:31:51.213Z,8834.00
2023-04-22T09:32:51.400Z,9136.00
2023-04-22T09:33:51.553Z,10441.00
2023-04-22T09:34:51.768Z,12332.00
2023-04-22T09:35:51.987Z,14555.00
2023-04-22T09:36:52.212Z,15626.00
2023-04-22T09:37:52.351Z,16100.00
2023-04-22T09:38:52.562Z,15823.00
2023-04-22T09:39:52.767Z,17155.00
2023-04-22T09:40:52.973Z,24992.00
2023-04-22T09:41:53.252Z,18768.00
2023-04-22T09:42:53.437Z,16197.00
2023-04-22T09:43:53.602Z,18451.00
2023-04-22T09:44:53.818Z,20275.00
2023-04-22T09:45:54.079Z,18498.00
2023-04-22T09:46:54.266Z,20316.00
2023-04-22T09:47:54.511Z,21319.00
2023-04-22T09:48:55.511Z,22115.00
2023-04-22T09:49:55.954Z,21577.00
2023-04-22T09:50:56.012Z,20857.00
2023-04-22T09:51:55.255Z,18415.00
2023-04-22T09:52:56.279Z,19070.00
2023-04-22T09:53:55.641Z,20752.00
2023-04-22T09:54:55.869Z,20107.00
2023-04-22T09:55:56.060Z,20633.00
2023-04-22T09:56:56.239Z,21980.00
2023-04-22T09:57:56.419Z,27362.00
2023-04-22T09:58:56.625Z,22670.00
2023-04-22T09:59:56.808Z,16003.00
2023-04-22T10:00:57.094Z,18089.00
2023-04-22T10:01:57.185Z,19485.00
2023-04-22T10:02:57.422Z,21437.00
2023-04-22T10:03:57.599Z,22312.00
2023-04-22T10:04:57.785Z,21908.00
2023-04-22T10:05:57.969Z,22906.00
2023-04-22T10:06:58.207Z,21188.00
2023-04-22T10:07:58.969Z,21097.00
2023-04-22T10:08:58.565Z,20754.00
2023-04-22T10:09:58.792Z,22312.00
2023-04-22T10:10:58.950Z,24254.00
2023-04-22T10:11:59.173Z,23880.00
2023-04-22T10:12:59.358Z,23046.00
2023-04-22T10:13:59.556Z,23750.00
2023-04-22T10:14:59.728Z,25383.00
2023-04-22T10:15:59.957Z,21416.00
2023-04-22T10:17:00.293Z,21640.00
2023-04-22T10:18:00.373Z,28664.00
2023-04-22T10:19:00.499Z,27472.00
2023-04-22T10:20:01.385Z,22529.00
2023-04-22T10:21:00.942Z,24298.00
2023-04-22T10:22:01.169Z,26156.00
2023-04-22T10:23:01.359Z,80352.00
2023-04-22T10:24:01.536Z,75580.00
2023-04-22T10:25:01.759Z,75282.00
2023-04-22T10:26:01.924Z,75282.00
2023-04-22T10:27:02.136Z,75235.00
2023-04-22T10:28:02.969Z,75293.00
2023-04-22T10:29:02.483Z,77198.00
2023-04-22T10:30:02.698Z,81812.00
2023-04-22T10:31:02.930Z,79045.00
2023-04-22T10:32:03.169Z,77571.00
2023-04-22T10:33:03.324Z,79073.00
2023-04-22T10:34:03.546Z,82243.00
2023-04-22T10:35:03.742Z,79056.00
2023-04-22T10:36:03.993Z,75718.00
2023-04-22T10:37:04.171Z,75515.00
2023-04-22T10:38:04.355Z,75353.00
2023-04-22T10:39:04.543Z,75355.00
2023-04-22T10:40:04.716Z,75587.00
2023-04-22T10:41:04.940Z,75663.00
2023-04-22T10:42:05.204Z,75447.00
2023-04-22T10:43:05.648Z,75301.00
2023-04-22T10:44:05.535Z,77273.00
2023-04-22T10:45:05.801Z,82064.00
2023-04-22T10:46:05.984Z,80009.00
2023-04-22T10:47:06.150Z,78254.00
2023-04-22T10:48:06.379Z,79415.00
2023-04-22T10:49:06.935Z,78737.00
2023-04-22T10:50:06.791Z,80237.00
2023-04-22T10:51:06.963Z,79822.00
2023-04-22T10:52:07.343Z,77811.00
2023-04-22T10:53:07.405Z,78541.00
2023-04-22T10:54:07.701Z,79625.00
2023-04-22T10:55:07.934Z,80240.00
2023-04-22T10:56:07.990Z,80604.00
2023-04-22T10:57:08.266Z,80535.00
2023-04-22T10:58:08.439Z,79967.00
2023-04-22T10:59:08.626Z,79833.00
2023-04-22T11:00:08.839Z,79104.00
2023-04-22T11:01:09.063Z,79157.00
2023-04-22T11:02:09.291Z,79844.00
2023-04-22T11:03:09.536Z,81400.00
2023-04-22T11:04:09.841Z,80871.00
2023-04-22T11:05:09.888Z,79333.00
2023-04-22T11:06:10.076Z,78605.00
2023-04-22T11:07:10.296Z,78261.00
2023-04-22T11:08:10.488Z,77153.00
2023-04-22T11:09:10.698Z,78100.00
2023-04-22T11:10:10.916Z,79183.00
2023-04-22T11:11:11.116Z,78754.00
2023-04-22T11:12:11.378Z,77483.00
2023-04-22T11:13:11.512Z,75735.00
2023-04-22T11:14:11.749Z,74948.00
2023-04-22T11:15:11.934Z,75927.00
2023-04-22T11:16:12.233Z,77668.00
2023-04-22T11:17:12.337Z,79893.00
2023-04-22T11:18:12.578Z,80765.00
2023-04-22T11:19:12.682Z,80226.00
2023-04-22T11:20:12.902Z,79911.00
2023-04-22T11:21:13.099Z,80016.00
2023-04-22T11:22:13.334Z,78404.00
2023-04-22T11:23:13.512Z,76418.00
2023-04-22T11:24:13.691Z,75371.00
2023-04-22T11:25:13.940Z,76823.00
2023-04-22T11:26:14.110Z,75995.00
2023-04-22T11:27:14.462Z,76891.00
2023-04-22T11:28:14.546Z,78430.00
2023-04-22T11:29:14.725Z,78857.00
2023-04-22T11:30:15.080Z,15948.00
2023-04-22T11:31:15.171Z,79628.00
2023-04-22T11:32:15.315Z,79918.00
2023-04-22T11:33:15.504Z,79625.00
2023-04-22T11:34:15.769Z,80152.00
2023-04-22T11:35:16.033Z,80432.00
2023-04-22T11:36:16.124Z,80394.00
2023-04-22T11:37:16.318Z,20493.00
2023-04-22T11:38:16.506Z,12146.00
2023-04-22T11:39:16.733Z,10695.00
2023-04-22T11:40:30.230Z,80166.00
2023-04-22T11:41:17.129Z,80144.00
2023-04-22T11:42:17.361Z,77009.00
2023-04-22T11:43:17.501Z,80977.00
2023-04-22T11:44:17.714Z,80448.00
2023-04-22T11:45:17.926Z,81272.00
2023-04-22T11:46:19.311Z,27107.00
2023-04-22T11:47:18.337Z,82450.00
2023-04-22T11:48:18.503Z,82757.00
2023-04-22T11:49:18.719Z,82912.00
2023-04-22T11:50:18.950Z,79996.00
2023-04-22T11:51:19.136Z,34633.00
2023-04-22T11:52:19.661Z,17325.00
2023-04-22T11:53:19.565Z,15948.00
2023-04-22T11:54:19.773Z,15401.00
2023-04-22T11:55:20.006Z,15038.00
2023-04-22T11:56:20.224Z,15032.00
2023-04-22T11:57:20.430Z,15146.00
2023-04-22T11:58:20.617Z,15411.00
2023-04-22T11:59:22.647Z,13567.00
2023-04-22T12:00:21.115Z,13140.00
2023-04-22T12:01:21.259Z,14624.00
2023-04-22T12:02:21.648Z,30659.00
2023-04-22T12:03:21.728Z,27224.00
2023-04-22T12:04:21.904Z,17493.00
2023-04-22T12:05:22.036Z,28158.00
2023-04-22T12:06:22.191Z,27933.00
2023-04-22T12:07:22.431Z,25621.00
2023-04-22T12:08:22.679Z,23271.00
2023-04-22T12:09:22.837Z,21606.00
2023-04-22T12:10:23.009Z,20992.00
2023-04-22T12:11:23.382Z,22643.00
2023-04-22T12:12:23.424Z,13552.00
2023-04-22T12:13:23.585Z,21359.00
2023-04-22T12:14:23.822Z,15677.00
2023-04-22T12:15:23.992Z,23957.00
2023-04-22T12:16:24.215Z,24317.00
2023-04-22T12:17:24.418Z,13813.00
2023-04-22T12:18:24.602Z,29352.00
2023-04-22T12:19:24.749Z,27851.00
2023-04-22T12:20:24.937Z,25325.00
2023-04-22T12:21:25.176Z,24126.00
2023-04-22T12:22:25.342Z,26040.00
2023-04-22T12:23:25.566Z,29541.00
2023-04-22T12:24:25.745Z,23816.00
2023-04-22T12:25:25.947Z,21791.00